Terminal Aerodrome Forecast
Issued by NWS

Home | Current Version | Previous Version | Text Only | Print | Product List | Glossary On
Versions: 1 2 3 4 5 6 7 8 9 10 11 12 13 14 15 16 17
000
FTUS44 KTSA 261100
TAFXNA
TAF
KXNA 261127Z 2612/2712 19005KT P6SM FEW250
      TEMPO 2612/2613 4SM BR
     FM261500 21014KT P6SM FEW040 SCT250
     FM270100 19007KT P6SM SCT250=

USA.gov is the U.S. government's official web portal to all federal, state and local government web resources and services.